sensor_id;sensor_type;location;lat;lon;timestamp;temperature;humidity
5274;DHT22;56254;50.956;7.010;2022-10-16T00:01:11;16.60;99.90
5274;DHT22;56254;50.956;7.010;2022-10-16T00:03:38;16.60;99.90
5274;DHT22;56254;50.956;7.010;2022-10-16T00:06:08;16.70;99.90
5274;DHT22;56254;50.956;7.010;2022-10-16T00:08:34;16.90;99.90
5274;DHT22;56254;50.956;7.010;2022-10-16T00:11:20;16.80;99.90
5274;DHT22;56254;50.956;7.010;2022-10-16T00:13:48;16.80;99.90
5274;DHT22;56254;50.956;7.010;2022-10-16T00:16:15;16.80;99.90
5274;DHT22;56254;50.956;7.010;2022-10-16T00:18:42;16.90;99.90
5274;DHT22;56254;50.956;7.010;2022-10-16T00:21:10;16.80;99.90
5274;DHT22;56254;50.956;7.010;2022-10-16T00:23:36;16.90;99.90
5274;DHT22;56254;50.956;7.010;2022-10-16T00:26:05;16.90;99.90
5274;DHT22;56254;50.956;7.010;2022-10-16T00:28:32;16.90;99.90
5274;DHT22;56254;50.956;7.010;2022-10-16T00:30:58;17.00;99.90
5274;DHT22;56254;50.956;7.010;2022-10-16T00:33:24;16.80;99.90
5274;DHT22;56254;50.956;7.010;2022-10-16T00:35:51;16.90;99.90
5274;DHT22;56254;50.956;7.010;2022-10-16T00:38:17;16.80;99.90
5274;DHT22;56254;50.956;7.010;2022-10-16T00:40:42;16.60;99.90
5274;DHT22;56254;50.956;7.010;2022-10-16T00:43:49;16.50;99.90
5274;DHT22;56254;50.956;7.010;2022-10-16T00:46:24;16.50;99.90
5274;DHT22;56254;50.956;7.010;2022-10-16T00:49:10;16.40;99.90
5274;DHT22;56254;50.956;7.010;2022-10-16T00:51:51;16.30;99.90
5274;DHT22;56254;50.956;7.010;2022-10-16T00:54:23;16.20;99.90
5274;DHT22;56254;50.956;7.010;2022-10-16T00:56:50;16.20;99.90
5274;DHT22;56254;50.956;7.010;2022-10-16T00:59:28;16.10;99.90
5274;DHT22;56254;50.956;7.010;2022-10-16T01:01:55;16.20;99.90
5274;DHT22;56254;50.956;7.010;2022-10-16T01:04:22;16.10;99.90
5274;DHT22;56254;50.956;7.010;2022-10-16T01:13:04;16.10;99.90
5274;DHT22;56254;50.956;7.010;2022-10-16T01:15:36;16.10;99.90
5274;DHT22;56254;50.956;7.010;2022-10-16T01:20:44;16.10;99.90
5274;DHT22;56254;50.956;7.010;2022-10-16T01:31:26;15.80;99.90
5274;DHT22;56254;50.956;7.010;2022-10-16T01:34:00;15.90;99.90
5274;DHT22;56254;50.956;7.010;2022-10-16T01:36:39;15.90;99.90
5274;DHT22;56254;50.956;7.010;2022-10-16T01:39:07;15.90;99.90
5274;DHT22;56254;50.956;7.010;2022-10-16T01:41:41;15.90;99.90
5274;DHT22;56254;50.956;7.010;2022-10-16T01:44:25;15.90;99.90
5274;DHT22;56254;50.956;7.010;2022-10-16T01:46:53;15.80;99.90
5274;DHT22;56254;50.956;7.010;2022-10-16T01:49:22;15.80;99.90
5274;DHT22;56254;50.956;7.010;2022-10-16T01:51:52;15.70;99.90
5274;DHT22;56254;50.956;7.010;2022-10-16T01:54:20;15.80;99.90
5274;DHT22;56254;50.956;7.010;2022-10-16T01:56:48;15.70;99.90
5274;DHT22;56254;50.956;7.010;2022-10-16T01:59:18;15.70;99.90
5274;DHT22;56254;50.956;7.010;2022-10-16T02:01:48;15.70;99.90
5274;DHT22;56254;50.956;7.010;2022-10-16T02:04:34;15.70;99.90
5274;DHT22;56254;50.956;7.010;2022-10-16T02:07:01;15.70;99.90
5274;DHT22;56254;50.956;7.010;2022-10-16T02:09:30;15.80;99.90
5274;DHT22;56254;50.956;7.010;2022-10-16T02:11:57;15.80;99.90
5274;DHT22;56254;50.956;7.010;2022-10-16T02:14:25;15.90;99.90
5274;DHT22;56254;50.956;7.010;2022-10-16T02:16:51;15.90;99.90
5274;DHT22;56254;50.956;7.010;2022-10-16T02:19:18;15.90;99.90
5274;DHT22;56254;50.956;7.010;2022-10-16T02:21:58;16.10;99.90
5274;DHT22;56254;50.956;7.010;2022-10-16T02:30:29;16.00;99.90
5274;DHT22;56254;50.956;7.010;2022-10-16T02:32:58;16.00;99.90
5274;DHT22;56254;50.956;7.010;2022-10-16T02:35:26;16.00;99.90
5274;DHT22;56254;50.956;7.010;2022-10-16T02:37:53;16.00;99.90
5274;DHT22;56254;50.956;7.010;2022-10-16T02:40:20;16.00;99.90
5274;DHT22;56254;50.956;7.010;2022-10-16T02:42:51;16.00;99.90
5274;DHT22;56254;50.956;7.010;2022-10-16T02:45:17;16.10;99.90
5274;DHT22;56254;50.956;7.010;2022-10-16T02:47:43;16.10;99.90
5274;DHT22;56254;50.956;7.010;2022-10-16T02:50:09;16.10;99.90
5274;DHT22;56254;50.956;7.010;2022-10-16T02:52:35;16.20;99.90
5274;DHT22;56254;50.956;7.010;2022-10-16T02:55:00;16.20;99.90
5274;DHT22;56254;50.956;7.010;2022-10-16T02:57:26;16.20;99.90
5274;DHT22;56254;50.956;7.010;2022-10-16T02:59:52;16.10;99.90
5274;DHT22;56254;50.956;7.010;2022-10-16T03:02:18;16.10;99.90
5274;DHT22;56254;50.956;7.010;2022-10-16T03:04:44;16.20;99.90
5274;DHT22;56254;50.956;7.010;2022-10-16T03:07:09;16.20;99.90
5274;DHT22;56254;50.956;7.010;2022-10-16T03:09:35;16.20;99.90
5274;DHT22;56254;50.956;7.010;2022-10-16T03:12:01;16.20;99.90
5274;DHT22;56254;50.956;7.010;2022-10-16T03:14:26;16.20;99.90
5274;DHT22;56254;50.956;7.010;2022-10-16T03:16:52;16.10;99.90
5274;DHT22;56254;50.956;7.010;2022-10-16T03:19:18;16.10;99.90
5274;DHT22;56254;50.956;7.010;2022-10-16T03:21:44;16.00;99.90
5274;DHT22;56254;50.956;7.010;2022-10-16T03:24:10;15.90;99.90
5274;DHT22;56254;50.956;7.010;2022-10-16T03:26:36;15.90;99.90
5274;DHT22;56254;50.956;7.010;2022-10-16T03:29:02;15.70;99.90
5274;DHT22;56254;50.956;7.010;2022-10-16T03:31:30;15.80;99.90
5274;DHT22;56254;50.956;7.010;2022-10-16T03:33:56;15.80;99.90
5274;DHT22;56254;50.956;7.010;2022-10-16T03:36:24;15.70;99.90
5274;DHT22;56254;50.956;7.010;2022-10-16T03:38:50;15.70;99.90
5274;DHT22;56254;50.956;7.010;2022-10-16T03:41:16;15.80;99.90
5274;DHT22;56254;50.956;7.010;2022-10-16T03:43:42;15.70;99.90
5274;DHT22;56254;50.956;7.010;2022-10-16T03:46:07;15.70;99.90
5274;DHT22;56254;50.956;7.010;2022-10-16T03:48:33;15.70;99.90
5274;DHT22;56254;50.956;7.010;2022-10-16T03:50:59;15.70;99.90
5274;DHT22;56254;50.956;7.010;2022-10-16T03:53:25;15.70;99.90
5274;DHT22;56254;50.956;7.010;2022-10-16T03:55:50;15.90;99.90
5274;DHT22;56254;50.956;7.010;2022-10-16T03:58:16;16.00;99.90
5274;DHT22;56254;50.956;7.010;2022-10-16T04:00:43;16.10;99.90
5274;DHT22;56254;50.956;7.010;2022-10-16T04:03:10;16.10;99.90
5274;DHT22;56254;50.956;7.010;2022-10-16T04:05:36;16.10;99.90
5274;DHT22;56254;50.956;7.010;2022-10-16T04:08:01;16.20;99.90
5274;DHT22;56254;50.956;7.010;2022-10-16T04:10:27;16.20;99.90
5274;DHT22;56254;50.956;7.010;2022-10-16T04:12:53;16.20;99.90
5274;DHT22;56254;50.956;7.010;2022-10-16T04:15:24;16.30;99.90
5274;DHT22;56254;50.956;7.010;2022-10-16T04:17:50;16.30;99.90
5274;DHT22;56254;50.956;7.010;2022-10-16T04:20:17;16.30;99.90
5274;DHT22;56254;50.956;7.010;2022-10-16T04:22:43;16.20;99.90
5274;DHT22;56254;50.956;7.010;2022-10-16T04:25:09;16.20;99.90
5274;DHT22;56254;50.956;7.010;2022-10-16T04:27:35;16.20;99.90
5274;DHT22;56254;50.956;7.010;2022-10-16T04:30:01;16.20;99.90
5274;DHT22;56254;50.956;7.010;2022-10-16T04:32:27;16.20;99.90
5274;DHT22;56254;50.956;7.010;2022-10-16T04:34:53;16.20;99.90
5274;DHT22;56254;50.956;7.010;2022-10-16T04:37:19;16.20;99.90
5274;DHT22;56254;50.956;7.010;2022-10-16T04:39:48;16.30;99.90
5274;DHT22;56254;50.956;7.010;2022-10-16T04:42:13;16.20;99.90
5274;DHT22;56254;50.956;7.010;2022-10-16T04:44:39;16.10;99.90
5274;DHT22;56254;50.956;7.010;2022-10-16T04:47:05;16.20;99.90
5274;DHT22;56254;50.956;7.010;2022-10-16T04:49:30;16.10;99.90
5274;DHT22;56254;50.956;7.010;2022-10-16T04:51:57;16.10;99.90
5274;DHT22;56254;50.956;7.010;2022-10-16T04:54:22;16.00;99.90
5274;DHT22;56254;50.956;7.010;2022-10-16T04:56:48;16.10;99.90
5274;DHT22;56254;50.956;7.010;2022-10-16T04:59:17;16.00;99.90
5274;DHT22;56254;50.956;7.010;2022-10-16T05:01:42;16.10;99.90
5274;DHT22;56254;50.956;7.010;2022-10-16T05:04:09;16.00;99.90
5274;DHT22;56254;50.956;7.010;2022-10-16T05:06:34;16.00;99.90
5274;DHT22;56254;50.956;7.010;2022-10-16T05:09:00;16.00;99.90
5274;DHT22;56254;50.956;7.010;2022-10-16T05:11:26;16.10;99.90
5274;DHT22;56254;50.956;7.010;2022-10-16T05:13:51;16.20;99.90
5274;DHT22;56254;50.956;7.010;2022-10-16T05:16:17;16.10;99.90
5274;DHT22;56254;50.956;7.010;2022-10-16T05:18:43;16.10;99.90
5274;DHT22;56254;50.956;7.010;2022-10-16T05:21:09;16.10;99.90
5274;DHT22;56254;50.956;7.010;2022-10-16T05:23:34;16.10;99.90
5274;DHT22;56254;50.956;7.010;2022-10-16T05:26:01;16.10;99.90
5274;DHT22;56254;50.956;7.010;2022-10-16T05:28:28;16.10;99.90
5274;DHT22;56254;50.956;7.010;2022-10-16T05:30:55;16.20;99.90
5274;DHT22;56254;50.956;7.010;2022-10-16T05:33:21;16.10;99.90
5274;DHT22;56254;50.956;7.010;2022-10-16T05:35:47;16.10;99.90
5274;DHT22;56254;50.956;7.010;2022-10-16T05:38:13;16.00;99.90
5274;DHT22;56254;50.956;7.010;2022-10-16T05:40:39;16.00;99.90
5274;DHT22;56254;50.956;7.010;2022-10-16T05:43:04;16.00;99.90
5274;DHT22;56254;50.956;7.010;2022-10-16T05:45:30;15.90;99.90
5274;DHT22;56254;50.956;7.010;2022-10-16T05:47:56;16.10;99.90
5274;DHT22;56254;50.956;7.010;2022-10-16T05:50:21;16.10;99.90
5274;DHT22;56254;50.956;7.010;2022-10-16T05:52:47;16.10;99.90
5274;DHT22;56254;50.956;7.010;2022-10-16T05:55:13;16.10;99.90
5274;DHT22;56254;50.956;7.010;2022-10-16T05:57:39;16.00;99.90
5274;DHT22;56254;50.956;7.010;2022-10-16T06:00:06;15.90;99.90
5274;DHT22;56254;50.956;7.010;2022-10-16T06:02:31;15.90;99.90
5274;DHT22;56254;50.956;7.010;2022-10-16T06:04:57;15.90;99.90
5274;DHT22;56254;50.956;7.010;2022-10-16T06:07:23;15.90;99.90
5274;DHT22;56254;50.956;7.010;2022-10-16T06:09:50;15.90;99.90
5274;DHT22;56254;50.956;7.010;2022-10-16T06:12:16;15.90;99.90
5274;DHT22;56254;50.956;7.010;2022-10-16T06:14:43;15.80;99.90
5274;DHT22;56254;50.956;7.010;2022-10-16T06:17:09;15.80;99.90
5274;DHT22;56254;50.956;7.010;2022-10-16T06:19:35;15.70;99.90
5274;DHT22;56254;50.956;7.010;2022-10-16T08:32:04;16.30;99.90
5274;DHT22;56254;50.956;7.010;2022-10-16T08:34:30;17.20;99.90
5274;DHT22;56254;50.956;7.010;2022-10-16T08:36:55;18.00;99.90
5274;DHT22;56254;50.956;7.010;2022-10-16T08:39:21;18.20;99.90
5274;DHT22;56254;50.956;7.010;2022-10-16T08:49:35;18.40;99.90
5274;DHT22;56254;50.956;7.010;2022-10-16T08:52:02;18.50;99.90
5274;DHT22;56254;50.956;7.010;2022-10-16T08:54:48;18.50;99.90
5274;DHT22;56254;50.956;7.010;2022-10-16T08:57:24;18.50;99.90
5274;DHT22;56254;50.956;7.010;2022-10-16T08:59:50;18.70;99.90
5274;DHT22;56254;50.956;7.010;2022-10-16T09:02:31;18.70;99.90
5274;DHT22;56254;50.956;7.010;2022-10-16T09:10:59;19.00;99.90
5274;DHT22;56254;50.956;7.010;2022-10-16T09:13:48;19.00;99.70
5274;DHT22;56254;50.956;7.010;2022-10-16T09:16:34;19.00;99.50
5274;DHT22;56254;50.956;7.010;2022-10-16T09:19:14;19.10;98.50
5274;DHT22;56254;50.956;7.010;2022-10-16T09:21:45;19.10;98.50
5274;DHT22;56254;50.956;7.010;2022-10-16T09:24:21;19.20;97.90
5274;DHT22;56254;50.956;7.010;2022-10-16T09:26:49;19.20;98.50
5274;DHT22;56254;50.956;7.010;2022-10-16T09:29:17;19.40;98.00
5274;DHT22;56254;50.956;7.010;2022-10-16T09:31:46;19.50;97.20
5274;DHT22;56254;50.956;7.010;2022-10-16T09:34:30;19.50;96.50
5274;DHT22;56254;50.956;7.010;2022-10-16T09:36:57;19.50;95.50
5274;DHT22;56254;50.956;7.010;2022-10-16T09:39:23;19.70;94.60
5274;DHT22;56254;50.956;7.010;2022-10-16T09:41:48;19.70;94.80
5274;DHT22;56254;50.956;7.010;2022-10-16T09:44:21;19.70;94.00
5274;DHT22;56254;50.956;7.010;2022-10-16T09:46:49;19.60;93.80
5274;DHT22;56254;50.956;7.010;2022-10-16T09:49:23;19.70;94.30
5274;DHT22;56254;50.956;7.010;2022-10-16T09:51:50;19.90;94.00
5274;DHT22;56254;50.956;7.010;2022-10-16T09:54:18;20.10;94.10
5274;DHT22;56254;50.956;7.010;2022-10-16T09:56:44;19.90;94.20
5274;DHT22;56254;50.956;7.010;2022-10-16T09:59:19;20.10;94.00
5274;DHT22;56254;50.956;7.010;2022-10-16T10:01:55;20.20;92.70
5274;DHT22;56254;50.956;7.010;2022-10-16T10:04:23;20.20;93.20
5274;DHT22;56254;50.956;7.010;2022-10-16T10:06:51;20.20;92.80
5274;DHT22;56254;50.956;7.010;2022-10-16T10:36:34;21.20;86.20
5274;DHT22;56254;50.956;7.010;2022-10-16T10:44:28;21.20;85.60
5274;DHT22;56254;50.956;7.010;2022-10-16T10:47:11;21.20;85.60
5274;DHT22;56254;50.956;7.010;2022-10-16T10:52:43;21.20;85.50
5274;DHT22;56254;50.956;7.010;2022-10-16T11:01:16;21.50;85.30
5274;DHT22;56254;50.956;7.010;2022-10-16T11:06:29;21.50;84.40
5274;DHT22;56254;50.956;7.010;2022-10-16T11:09:00;21.70;83.80
5274;DHT22;56254;50.956;7.010;2022-10-16T11:16:34;21.60;84.10
5274;DHT22;56254;50.956;7.010;2022-10-16T11:24:30;21.40;84.50
5274;DHT22;56254;50.956;7.010;2022-10-16T11:27:07;21.40;83.80
5274;DHT22;56254;50.956;7.010;2022-10-16T11:29:35;21.70;83.50
5274;DHT22;56254;50.956;7.010;2022-10-16T11:32:22;21.90;82.90
5274;DHT22;56254;50.956;7.010;2022-10-16T11:34:53;21.80;83.20
5274;DHT22;56254;50.956;7.010;2022-10-16T11:37:29;21.70;83.60
5274;DHT22;56254;50.956;7.010;2022-10-16T11:40:00;21.70;82.20
5274;DHT22;56254;50.956;7.010;2022-10-16T11:42:44;21.60;82.40
5274;DHT22;56254;50.956;7.010;2022-10-16T11:45:37;21.50;82.90
5274;DHT22;56254;50.956;7.010;2022-10-16T11:48:41;21.80;82.80
5274;DHT22;56254;50.956;7.010;2022-10-16T11:51:25;21.70;83.40
5274;DHT22;56254;50.956;7.010;2022-10-16T11:54:05;22.10;82.40
5274;DHT22;56254;50.956;7.010;2022-10-16T11:56:38;22.40;81.90
5274;DHT22;56254;50.956;7.010;2022-10-16T11:59:18;22.90;80.90
5274;DHT22;56254;50.956;7.010;2022-10-16T12:04:47;23.00;78.90
5274;DHT22;56254;50.956;7.010;2022-10-16T12:07:24;23.00;79.80
5274;DHT22;56254;50.956;7.010;2022-10-16T12:09:53;22.90;79.30
5274;DHT22;56254;50.956;7.010;2022-10-16T12:15:29;22.80;79.00
5274;DHT22;56254;50.956;7.010;2022-10-16T12:17:55;22.70;79.70
5274;DHT22;56254;50.956;7.010;2022-10-16T12:20:27;22.70;79.60
5274;DHT22;56254;50.956;7.010;2022-10-16T12:23:16;22.70;79.20
5274;DHT22;56254;50.956;7.010;2022-10-16T12:25:54;22.80;79.10
5274;DHT22;56254;50.956;7.010;2022-10-16T12:28:25;22.80;79.20
5274;DHT22;56254;50.956;7.010;2022-10-16T12:31:09;22.50;78.60
5274;DHT22;56254;50.956;7.010;2022-10-16T12:33:37;22.50;79.60
5274;DHT22;56254;50.956;7.010;2022-10-16T12:36:13;22.60;79.20
5274;DHT22;56254;50.956;7.010;2022-10-16T12:41:30;22.60;79.30
5274;DHT22;56254;50.956;7.010;2022-10-16T12:43:57;22.90;78.30
5274;DHT22;56254;50.956;7.010;2022-10-16T12:46:36;23.20;77.70
5274;DHT22;56254;50.956;7.010;2022-10-16T12:49:21;23.40;78.10
5274;DHT22;56254;50.956;7.010;2022-10-16T12:51:47;23.20;77.40
5274;DHT22;56254;50.956;7.010;2022-10-16T12:54:29;23.00;78.20
5274;DHT22;56254;50.956;7.010;2022-10-16T13:02:34;22.30;78.90
5274;DHT22;56254;50.956;7.010;2022-10-16T13:10:21;22.70;78.80
5274;DHT22;56254;50.956;7.010;2022-10-16T13:24:42;22.50;79.30
5274;DHT22;56254;50.956;7.010;2022-10-16T13:30:17;22.20;80.80
5274;DHT22;56254;50.956;7.010;2022-10-16T13:33:01;22.20;81.30
5274;DHT22;56254;50.956;7.010;2022-10-16T13:35:31;22.20;81.00
5274;DHT22;56254;50.956;7.010;2022-10-16T13:38:15;22.30;80.60
5274;DHT22;56254;50.956;7.010;2022-10-16T13:40:57;22.20;80.50
5274;DHT22;56254;50.956;7.010;2022-10-16T13:46:15;22.20;80.20
5274;DHT22;56254;50.956;7.010;2022-10-16T13:48:42;22.20;80.40
5274;DHT22;56254;50.956;7.010;2022-10-16T13:51:17;22.30;81.40
5274;DHT22;56254;50.956;7.010;2022-10-16T13:53:43;22.20;81.70
5274;DHT22;56254;50.956;7.010;2022-10-16T13:56:15;22.30;81.10
5274;DHT22;56254;50.956;7.010;2022-10-16T13:58:41;22.40;81.50
5274;DHT22;56254;50.956;7.010;2022-10-16T14:01:20;22.30;82.20
5274;DHT22;56254;50.956;7.010;2022-10-16T14:03:48;22.40;82.30
5274;DHT22;56254;50.956;7.010;2022-10-16T14:06:21;22.40;82.60
5274;DHT22;56254;50.956;7.010;2022-10-16T14:09:06;22.30;82.60
5274;DHT22;56254;50.956;7.010;2022-10-16T14:11:33;22.10;83.20
5274;DHT22;56254;50.956;7.010;2022-10-16T14:14:02;22.00;83.70
5274;DHT22;56254;50.956;7.010;2022-10-16T14:16:31;21.90;83.90
5274;DHT22;56254;50.956;7.010;2022-10-16T14:19:03;21.90;84.20
5274;DHT22;56254;50.956;7.010;2022-10-16T14:21:34;21.70;84.90
5274;DHT22;56254;50.956;7.010;2022-10-16T14:24:12;21.80;85.10
5274;DHT22;56254;50.956;7.010;2022-10-16T14:26:42;21.90;85.00
5274;DHT22;56254;50.956;7.010;2022-10-16T14:29:18;21.90;84.90
5274;DHT22;56254;50.956;7.010;2022-10-16T14:31:55;21.80;85.10
5274;DHT22;56254;50.956;7.010;2022-10-16T14:34:33;21.70;85.30
5274;DHT22;56254;50.956;7.010;2022-10-16T14:39:33;21.70;86.00
5274;DHT22;56254;50.956;7.010;2022-10-16T14:41:59;21.80;86.30
5274;DHT22;56254;50.956;7.010;2022-10-16T14:44:29;21.80;86.40
5274;DHT22;56254;50.956;7.010;2022-10-16T14:46:56;21.80;86.20
5274;DHT22;56254;50.956;7.010;2022-10-16T14:49:23;21.90;85.90
5274;DHT22;56254;50.956;7.010;2022-10-16T14:51:49;21.90;86.00
5274;DHT22;56254;50.956;7.010;2022-10-16T14:54:17;21.90;86.30
5274;DHT22;56254;50.956;7.010;2022-10-16T14:56:54;21.90;85.60
5274;DHT22;56254;50.956;7.010;2022-10-16T15:01:58;22.10;86.00
5274;DHT22;56254;50.956;7.010;2022-10-16T15:04:24;22.00;86.20
5274;DHT22;56254;50.956;7.010;2022-10-16T15:06:50;21.90;86.60
5274;DHT22;56254;50.956;7.010;2022-10-16T15:09:15;21.90;86.80
5274;DHT22;56254;50.956;7.010;2022-10-16T15:11:42;21.80;87.10
5274;DHT22;56254;50.956;7.010;2022-10-16T15:14:15;21.80;87.80
5274;DHT22;56254;50.956;7.010;2022-10-16T15:16:41;21.80;88.00
5274;DHT22;56254;50.956;7.010;2022-10-16T15:19:07;21.60;88.40
5274;DHT22;56254;50.956;7.010;2022-10-16T15:21:33;21.60;88.60
5274;DHT22;56254;50.956;7.010;2022-10-16T15:23:59;21.50;88.80
5274;DHT22;56254;50.956;7.010;2022-10-16T15:26:27;21.40;88.80
5274;DHT22;56254;50.956;7.010;2022-10-16T15:28:53;21.40;89.30
5274;DHT22;56254;50.956;7.010;2022-10-16T15:31:20;21.30;89.90
5274;DHT22;56254;50.956;7.010;2022-10-16T15:33:50;21.20;90.40
5274;DHT22;56254;50.956;7.010;2022-10-16T15:36:28;21.10;90.80
5274;DHT22;56254;50.956;7.010;2022-10-16T15:38:54;21.10;91.10
5274;DHT22;56254;50.956;7.010;2022-10-16T15:41:21;21.10;91.40
5274;DHT22;56254;50.956;7.010;2022-10-16T15:43:50;21.00;92.00
5274;DHT22;56254;50.956;7.010;2022-10-16T15:46:21;21.00;92.10
5274;DHT22;56254;50.956;7.010;2022-10-16T15:48:49;21.00;91.90
5274;DHT22;56254;50.956;7.010;2022-10-16T15:51:27;21.10;92.10
5274;DHT22;56254;50.956;7.010;2022-10-16T15:53:56;21.00;92.70
5274;DHT22;56254;50.956;7.010;2022-10-16T15:56:22;21.00;92.60
5274;DHT22;56254;50.956;7.010;2022-10-16T15:59:14;21.00;92.50
5274;DHT22;56254;50.956;7.010;2022-10-16T16:01:39;21.00;93.20
5274;DHT22;56254;50.956;7.010;2022-10-16T16:04:05;20.90;93.70
5274;DHT22;56254;50.956;7.010;2022-10-16T16:06:37;20.90;94.90
5274;DHT22;56254;50.956;7.010;2022-10-16T16:09:04;20.80;95.60
5274;DHT22;56254;50.956;7.010;2022-10-16T16:11:30;20.70;95.90
5274;DHT22;56254;50.956;7.010;2022-10-16T16:13:58;20.60;96.60
5274;DHT22;56254;50.956;7.010;2022-10-16T16:16:24;20.60;96.50
5274;DHT22;56254;50.956;7.010;2022-10-16T16:18:52;20.40;97.40
5274;DHT22;56254;50.956;7.010;2022-10-16T16:21:26;20.50;97.40
5274;DHT22;56254;50.956;7.010;2022-10-16T16:37:30;20.30;98.90
5274;DHT22;56254;50.956;7.010;2022-10-16T16:39:56;20.40;98.90
5274;DHT22;56254;50.956;7.010;2022-10-16T16:42:26;20.30;99.20
5274;DHT22;56254;50.956;7.010;2022-10-16T16:44:52;20.30;99.40
5274;DHT22;56254;50.956;7.010;2022-10-16T16:47:18;20.10;99.90
5274;DHT22;56254;50.956;7.010;2022-10-16T16:49:44;20.10;99.90
5274;DHT22;56254;50.956;7.010;2022-10-16T16:52:12;20.10;99.90
5274;DHT22;56254;50.956;7.010;2022-10-16T16:54:37;20.10;99.90
5274;DHT22;56254;50.956;7.010;2022-10-16T16:57:03;20.00;99.90
5274;DHT22;56254;50.956;7.010;2022-10-16T16:59:29;20.00;99.90
5274;DHT22;56254;50.956;7.010;2022-10-16T17:01:58;20.00;99.90
5274;DHT22;56254;50.956;7.010;2022-10-16T17:04:25;19.90;99.90
5274;DHT22;56254;50.956;7.010;2022-10-16T17:06:53;19.90;99.90
5274;DHT22;56254;50.956;7.010;2022-10-16T17:09:20;20.00;99.90
5274;DHT22;56254;50.956;7.010;2022-10-16T17:11:46;20.00;99.90
5274;DHT22;56254;50.956;7.010;2022-10-16T17:14:14;19.90;99.90
5274;DHT22;56254;50.956;7.010;2022-10-16T17:16:40;20.00;99.90
5274;DHT22;56254;50.956;7.010;2022-10-16T17:19:12;19.90;99.90
5274;DHT22;56254;50.956;7.010;2022-10-16T17:21:39;20.00;99.90
5274;DHT22;56254;50.956;7.010;2022-10-16T17:24:05;19.90;99.90
5274;DHT22;56254;50.956;7.010;2022-10-16T17:26:31;20.00;99.90
5274;DHT22;56254;50.956;7.010;2022-10-16T17:28:59;19.90;99.90
5274;DHT22;56254;50.956;7.010;2022-10-16T17:31:28;19.90;99.90
5274;DHT22;56254;50.956;7.010;2022-10-16T17:33:54;19.90;99.90
5274;DHT22;56254;50.956;7.010;2022-10-16T17:36:21;19.90;99.90
5274;DHT22;56254;50.956;7.010;2022-10-16T17:38:48;19.90;99.90
5274;DHT22;56254;50.956;7.010;2022-10-16T17:41:18;19.90;99.90
5274;DHT22;56254;50.956;7.010;2022-10-16T17:43:44;19.90;99.90
5274;DHT22;56254;50.956;7.010;2022-10-16T17:46:11;19.90;99.90
5274;DHT22;56254;50.956;7.010;2022-10-16T17:48:38;19.80;99.90
5274;DHT22;56254;50.956;7.010;2022-10-16T17:51:09;19.80;99.90
5274;DHT22;56254;50.956;7.010;2022-10-16T17:53:36;19.80;99.90
5274;DHT22;56254;50.956;7.010;2022-10-16T17:56:10;19.80;99.90
5274;DHT22;56254;50.956;7.010;2022-10-16T17:58:37;19.60;99.90
5274;DHT22;56254;50.956;7.010;2022-10-16T18:01:12;19.70;99.90
5274;DHT22;56254;50.956;7.010;2022-10-16T18:03:38;19.70;99.90
5274;DHT22;56254;50.956;7.010;2022-10-16T18:06:04;19.70;99.90
5274;DHT22;56254;50.956;7.010;2022-10-16T18:08:30;19.70;99.90
5274;DHT22;56254;50.956;7.010;2022-10-16T18:10:55;19.60;99.90
5274;DHT22;56254;50.956;7.010;2022-10-16T18:13:21;19.70;99.90
5274;DHT22;56254;50.956;7.010;2022-10-16T18:15:47;19.60;99.90
5274;DHT22;56254;50.956;7.010;2022-10-16T18:18:23;19.70;99.90
5274;DHT22;56254;50.956;7.010;2022-10-16T18:21:01;19.50;99.90
5274;DHT22;56254;50.956;7.010;2022-10-16T18:23:27;19.60;99.90
5274;DHT22;56254;50.956;7.010;2022-10-16T18:25:54;19.50;99.90
5274;DHT22;56254;50.956;7.010;2022-10-16T18:28:19;19.50;99.90
5274;DHT22;56254;50.956;7.010;2022-10-16T18:30:54;19.50;99.90
5274;DHT22;56254;50.956;7.010;2022-10-16T18:33:20;19.50;99.90
5274;DHT22;56254;50.956;7.010;2022-10-16T18:35:46;19.50;99.90
5274;DHT22;56254;50.956;7.010;2022-10-16T18:38:11;19.40;99.90
5274;DHT22;56254;50.956;7.010;2022-10-16T18:40:37;19.40;99.90
5274;DHT22;56254;50.956;7.010;2022-10-16T18:43:07;19.40;99.90
5274;DHT22;56254;50.956;7.010;2022-10-16T18:47:58;19.40;99.90
5274;DHT22;56254;50.956;7.010;2022-10-16T18:50:24;19.40;99.90
5274;DHT22;56254;50.956;7.010;2022-10-16T18:52:50;19.40;99.90
5274;DHT22;56254;50.956;7.010;2022-10-16T18:55:16;19.40;99.90
5274;DHT22;56254;50.956;7.010;2022-10-16T18:57:42;19.40;99.90
5274;DHT22;56254;50.956;7.010;2022-10-16T19:00:08;19.50;99.90
5274;DHT22;56254;50.956;7.010;2022-10-16T19:02:34;19.50;99.90
5274;DHT22;56254;50.956;7.010;2022-10-16T19:05:00;19.50;99.90
5274;DHT22;56254;50.956;7.010;2022-10-16T19:07:26;19.50;99.90
5274;DHT22;56254;50.956;7.010;2022-10-16T19:09:52;19.50;99.90
5274;DHT22;56254;50.956;7.010;2022-10-16T19:12:18;19.50;99.90
5274;DHT22;56254;50.956;7.010;2022-10-16T19:14:43;19.50;99.90
5274;DHT22;56254;50.956;7.010;2022-10-16T19:17:11;19.50;99.90
5274;DHT22;56254;50.956;7.010;2022-10-16T19:19:38;19.50;99.90
5274;DHT22;56254;50.956;7.010;2022-10-16T19:22:04;19.50;99.90
5274;DHT22;56254;50.956;7.010;2022-10-16T19:24:37;19.40;99.90
5274;DHT22;56254;50.956;7.010;2022-10-16T19:27:03;19.40;99.90
5274;DHT22;56254;50.956;7.010;2022-10-16T19:29:29;19.40;99.90
5274;DHT22;56254;50.956;7.010;2022-10-16T19:31:55;19.40;99.90
5274;DHT22;56254;50.956;7.010;2022-10-16T19:34:21;19.40;99.90
5274;DHT22;56254;50.956;7.010;2022-10-16T19:36:55;19.40;99.90
5274;DHT22;56254;50.956;7.010;2022-10-16T19:39:21;19.40;99.90
5274;DHT22;56254;50.956;7.010;2022-10-16T19:41:48;19.40;99.90
5274;DHT22;56254;50.956;7.010;2022-10-16T19:44:19;19.40;99.90
5274;DHT22;56254;50.956;7.010;2022-10-16T19:46:45;19.30;99.90
5274;DHT22;56254;50.956;7.010;2022-10-16T19:49:40;19.30;99.90
5274;DHT22;56254;50.956;7.010;2022-10-16T19:52:06;19.30;99.90
5274;DHT22;56254;50.956;7.010;2022-10-16T19:54:34;19.30;99.90
5274;DHT22;56254;50.956;7.010;2022-10-16T19:57:00;19.20;99.90
5274;DHT22;56254;50.956;7.010;2022-10-16T19:59:26;19.10;99.90
5274;DHT22;56254;50.956;7.010;2022-10-16T20:01:54;19.20;99.90
5274;DHT22;56254;50.956;7.010;2022-10-16T20:04:21;19.20;99.90
5274;DHT22;56254;50.956;7.010;2022-10-16T20:06:46;19.20;99.90
5274;DHT22;56254;50.956;7.010;2022-10-16T20:09:13;19.10;99.90
5274;DHT22;56254;50.956;7.010;2022-10-16T20:11:39;19.10;99.90
5274;DHT22;56254;50.956;7.010;2022-10-16T20:14:05;19.00;99.90
5274;DHT22;56254;50.956;7.010;2022-10-16T20:16:32;19.00;99.90
5274;DHT22;56254;50.956;7.010;2022-10-16T20:18:58;19.10;99.90
5274;DHT22;56254;50.956;7.010;2022-10-16T20:21:27;19.10;99.90
5274;DHT22;56254;50.956;7.010;2022-10-16T20:23:53;19.10;99.90
5274;DHT22;56254;50.956;7.010;2022-10-16T20:26:20;19.10;99.90
5274;DHT22;56254;50.956;7.010;2022-10-16T20:28:48;19.10;99.90
5274;DHT22;56254;50.956;7.010;2022-10-16T20:31:17;19.10;99.90
5274;DHT22;56254;50.956;7.010;2022-10-16T20:33:45;19.20;99.90
5274;DHT22;56254;50.956;7.010;2022-10-16T20:36:13;19.20;99.90
5274;DHT22;56254;50.956;7.010;2022-10-16T20:38:40;19.20;99.90